createdAt,value
2023-04-15T00:01:18.889Z,5.80
2023-04-15T00:03:48.214Z,5.80
2023-04-15T00:06:15.068Z,5.80
2023-04-15T00:08:41.901Z,5.80
2023-04-15T00:11:08.627Z,5.80
2023-04-15T00:13:35.264Z,5.80
2023-04-15T00:16:02.574Z,5.80
2023-04-15T00:18:32.001Z,5.70
2023-04-15T00:21:01.679Z,5.70
2023-04-15T00:23:28.490Z,5.70
2023-04-15T00:25:55.608Z,5.70
2023-04-15T00:28:22.457Z,5.70
2023-04-15T00:30:51.620Z,5.60
2023-04-15T00:33:18.336Z,5.50
2023-04-15T00:35:45.046Z,5.40
2023-04-15T00:38:13.080Z,5.40
2023-04-15T00:40:40.163Z,5.40
2023-04-15T00:43:07.035Z,5.30
2023-04-15T00:45:34.157Z,5.20
2023-04-15T00:48:03.662Z,5.30
2023-04-15T00:50:32.523Z,5.20
2023-04-15T00:52:59.170Z,5.20
2023-04-15T00:55:25.839Z,5.20
2023-04-15T00:57:52.959Z,5.20
2023-04-15T01:00:20.815Z,5.20
2023-04-15T01:02:47.679Z,5.10
2023-04-15T01:05:17.242Z,5.10
2023-04-15T01:07:46.094Z,5.10
2023-04-15T01:10:13.063Z,5.10
2023-04-15T01:12:42.376Z,5.10
2023-04-15T01:15:10.950Z,5.00
2023-04-15T01:17:38.135Z,5.00
2023-04-15T01:20:05.573Z,4.90
2023-04-15T01:22:34.462Z,4.90
2023-04-15T01:25:12.564Z,4.90
2023-04-15T01:27:41.036Z,5.00
2023-04-15T01:30:08.732Z,5.00
2023-04-15T01:32:35.748Z,5.00
2023-04-15T01:35:02.887Z,4.90
2023-04-15T01:37:30.030Z,4.90
2023-04-15T01:39:58.049Z,4.90
2023-04-15T01:42:24.699Z,4.90
2023-04-15T01:44:51.392Z,4.90
2023-04-15T01:47:18.003Z,4.90
2023-04-15T01:49:44.655Z,4.90
2023-04-15T01:52:11.295Z,4.80
2023-04-15T01:54:37.926Z,4.80
2023-04-15T01:57:05.480Z,4.70
2023-04-15T01:59:34.357Z,4.70
2023-04-15T02:02:01.325Z,4.80
2023-04-15T02:04:27.956Z,4.80
2023-04-15T02:06:54.677Z,4.80
2023-04-15T02:09:21.406Z,4.70
2023-04-15T02:11:48.110Z,4.70
2023-04-15T02:14:14.863Z,4.60
2023-04-15T02:16:41.566Z,4.70
2023-04-15T02:19:08.972Z,4.70
2023-04-15T02:21:35.765Z,4.70
2023-04-15T02:24:04.659Z,4.60
2023-04-15T02:26:34.167Z,4.70
2023-04-15T02:29:01.227Z,4.70
2023-04-15T02:31:28.084Z,4.60
2023-04-15T02:33:54.807Z,4.70
2023-04-15T02:36:24.203Z,4.60
2023-04-15T02:38:51.383Z,4.60
2023-04-15T02:41:18.672Z,4.70
2023-04-15T02:43:45.371Z,4.70
2023-04-15T02:46:14.659Z,4.70
2023-04-15T02:48:41.748Z,4.70
2023-04-15T02:51:20.312Z,4.70
2023-04-15T02:53:48.410Z,4.60
2023-04-15T02:56:17.038Z,4.60
2023-04-15T02:58:50.469Z,4.50
2023-04-15T03:01:17.198Z,4.50
2023-04-15T03:03:44.019Z,4.40
2023-04-15T03:06:10.760Z,4.40
2023-04-15T03:08:37.417Z,4.40
2023-04-15T03:11:04.710Z,4.40
2023-04-15T03:13:31.561Z,4.30
2023-04-15T03:15:58.289Z,4.40
2023-04-15T03:18:28.758Z,4.40
2023-04-15T03:20:55.476Z,4.40
2023-04-15T03:23:24.278Z,4.40
2023-04-15T03:25:51.157Z,4.40
2023-04-15T03:28:20.314Z,4.30
2023-04-15T03:30:46.944Z,4.30
2023-04-15T03:33:13.634Z,4.20
2023-04-15T03:35:40.336Z,4.10
2023-04-15T03:38:07.054Z,4.10
2023-04-15T03:40:34.266Z,4.10
2023-04-15T03:43:00.878Z,4.10
2023-04-15T03:45:27.574Z,4.10
2023-04-15T03:47:58.610Z,4.10
2023-04-15T03:50:30.457Z,4.00
2023-04-15T03:52:57.011Z,4.00
2023-04-15T03:55:23.653Z,3.90
2023-04-15T03:57:50.411Z,3.90
2023-04-15T04:00:17.134Z,3.90
2023-04-15T04:02:43.886Z,3.90
2023-04-15T04:05:10.758Z,3.90
2023-04-15T04:07:37.559Z,3.80
2023-04-15T04:10:07.802Z,3.80
2023-04-15T04:12:34.474Z,3.80
2023-04-15T04:15:03.538Z,3.70
2023-04-15T04:17:30.290Z,3.70
2023-04-15T04:19:56.948Z,3.70
2023-04-15T04:22:26.624Z,3.70
2023-04-15T04:24:53.288Z,3.70
2023-04-15T04:27:22.153Z,3.80
2023-04-15T04:29:51.042Z,3.80
2023-04-15T04:32:17.690Z,3.80
2023-04-15T04:34:46.564Z,3.70
2023-04-15T04:37:13.262Z,3.80
2023-04-15T04:39:40.187Z,3.80
2023-04-15T04:42:09.223Z,3.80
2023-04-15T04:44:35.849Z,3.70
2023-04-15T04:47:02.731Z,3.70
2023-04-15T04:49:32.134Z,3.70
2023-04-15T04:52:01.626Z,3.70
2023-04-15T04:54:28.383Z,3.70
2023-04-15T04:56:57.814Z,3.70
2023-04-15T04:59:24.925Z,3.70
2023-04-15T05:01:54.165Z,3.70
2023-04-15T05:04:20.979Z,3.70
2023-04-15T05:06:47.620Z,3.70
2023-04-15T05:09:14.279Z,3.70
2023-04-15T05:11:43.060Z,3.70
2023-04-15T05:14:09.962Z,3.70
2023-04-15T05:16:36.570Z,3.70
2023-04-15T05:19:03.369Z,3.80
2023-04-15T05:21:31.156Z,3.80
2023-04-15T05:23:57.805Z,3.90
2023-04-15T05:26:24.450Z,3.90
2023-04-15T05:28:51.074Z,4.00
2023-04-15T05:31:19.911Z,4.10
2023-04-15T05:33:46.646Z,4.20
2023-04-15T05:36:13.325Z,4.30
2023-04-15T05:38:39.932Z,4.30
2023-04-15T05:41:06.673Z,4.40
2023-04-15T05:43:33.338Z,4.50
2023-04-15T05:45:59.969Z,4.60
2023-04-15T05:48:26.638Z,4.70
2023-04-15T05:50:53.517Z,4.70
2023-04-15T05:53:24.851Z,4.80
2023-04-15T05:55:51.590Z,4.90
2023-04-15T05:58:20.749Z,5.00
2023-04-15T06:00:47.424Z,5.10
2023-04-15T06:03:16.815Z,5.10
2023-04-15T06:05:44.876Z,5.20
2023-04-15T06:08:13.841Z,5.40
2023-04-15T06:10:42.723Z,5.50
2023-04-15T06:13:09.368Z,5.60
2023-04-15T06:15:38.709Z,5.70
2023-04-15T06:18:05.360Z,5.80
2023-04-15T06:20:34.285Z,5.90
2023-04-15T06:23:01.034Z,6.10
2023-04-15T06:25:27.631Z,6.20
2023-04-15T06:27:54.289Z,6.30
2023-04-15T06:30:24.490Z,6.40
2023-04-15T06:32:51.295Z,6.50
2023-04-15T06:35:18.004Z,6.70
2023-04-15T06:37:47.215Z,6.80
2023-04-15T06:40:17.013Z,6.90
2023-04-15T06:42:43.708Z,7.10
2023-04-15T06:45:10.963Z,7.20
2023-04-15T06:47:37.717Z,7.40
2023-04-15T06:50:04.805Z,7.60
2023-04-15T06:52:31.799Z,7.70
2023-04-15T06:55:00.915Z,7.90
2023-04-15T06:57:28.642Z,8.00
2023-04-15T06:59:55.379Z,8.30
2023-04-15T07:02:22.286Z,8.40
2023-04-15T07:04:54.298Z,8.60
2023-04-15T07:07:21.194Z,8.80
2023-04-15T07:09:50.492Z,9.00
2023-04-15T07:12:17.097Z,9.10
2023-04-15T07:14:43.728Z,9.30
2023-04-15T07:17:13.286Z,9.50
2023-04-15T07:19:40.519Z,9.70
2023-04-15T07:22:09.676Z,9.90
2023-04-15T07:24:36.397Z,10.10
2023-04-15T07:27:04.159Z,10.30
2023-04-15T07:29:31.464Z,10.40
2023-04-15T07:31:58.200Z,10.60
2023-04-15T07:34:25.075Z,10.80
2023-04-15T07:36:52.072Z,10.90
2023-04-15T07:39:19.031Z,11.00
2023-04-15T07:41:48.990Z,11.20
2023-04-15T07:44:15.712Z,11.30
2023-04-15T07:46:42.381Z,11.50
2023-04-15T07:49:09.242Z,11.70
2023-04-15T07:51:35.900Z,11.90
2023-04-15T07:54:03.179Z,12.00
2023-04-15T07:56:29.887Z,12.10
2023-04-15T07:58:56.558Z,12.20
2023-04-15T08:01:23.181Z,12.30
2023-04-15T08:03:50.058Z,12.50
2023-04-15T08:06:17.045Z,12.60
2023-04-15T08:08:46.099Z,12.70
2023-04-15T08:11:15.589Z,12.70
2023-04-15T08:13:42.434Z,12.80
2023-04-15T08:16:24.476Z,12.90
2023-04-15T08:18:52.958Z,12.90
2023-04-15T08:21:20.458Z,12.90
2023-04-15T08:23:52.195Z,12.50
2023-04-15T08:26:20.321Z,12.60
2023-04-15T08:28:47.218Z,12.80
2023-04-15T08:31:21.013Z,12.90
2023-04-15T08:33:47.790Z,12.90
2023-04-15T08:36:17.600Z,12.90
2023-04-15T08:38:44.999Z,12.90
2023-04-15T08:41:40.625Z,12.90
2023-04-15T08:44:07.572Z,13.10
2023-04-15T08:46:37.274Z,13.20
2023-04-15T08:49:05.470Z,13.50
2023-04-15T08:51:33.639Z,13.60
2023-04-15T08:54:01.499Z,13.40
2023-04-15T08:56:30.976Z,13.60
2023-04-15T08:58:58.776Z,14.00
2023-04-15T09:01:26.016Z,14.40
2023-04-15T09:03:57.039Z,14.70
2023-04-15T09:06:24.092Z,14.60
2023-04-15T09:08:56.815Z,14.70
2023-04-15T09:11:23.698Z,14.60
2023-04-15T09:13:50.590Z,14.40
2023-04-15T09:16:17.629Z,14.60
2023-04-15T09:18:46.898Z,14.90
2023-04-15T09:21:16.022Z,15.30
2023-04-15T09:24:01.839Z,15.70
2023-04-15T09:26:36.118Z,15.90
2023-04-15T09:29:15.245Z,16.20
2023-04-15T09:31:42.763Z,16.50
2023-04-15T09:34:09.555Z,16.80
2023-04-15T09:36:51.727Z,17.00
2023-04-15T09:39:18.495Z,17.20
2023-04-15T09:41:45.411Z,17.30
2023-04-15T09:44:25.564Z,17.40
2023-04-15T09:46:55.150Z,17.30
2023-04-15T09:49:22.122Z,17.30
2023-04-15T09:52:01.655Z,17.20
2023-04-15T09:54:41.570Z,17.30
2023-04-15T09:57:10.224Z,17.30
2023-04-15T09:59:37.515Z,17.40
2023-04-15T10:02:08.030Z,17.50
2023-04-15T10:04:40.716Z,17.60
2023-04-15T10:07:09.421Z,17.60
2023-04-15T10:09:36.543Z,17.60
2023-04-15T10:12:05.173Z,17.60
2023-04-15T10:14:38.480Z,17.70
2023-04-15T10:17:07.416Z,17.60
2023-04-15T10:19:37.350Z,17.40
2023-04-15T10:22:04.530Z,17.30
2023-04-15T10:24:34.695Z,17.20
2023-04-15T10:27:03.799Z,17.10
2023-04-15T10:29:30.753Z,17.10
2023-04-15T10:31:58.661Z,17.10
2023-04-15T10:34:27.948Z,17.10
2023-04-15T10:37:03.475Z,17.10
2023-04-15T10:39:44.373Z,17.20
2023-04-15T10:42:13.513Z,17.30
2023-04-15T10:44:51.528Z,17.30
2023-04-15T10:47:22.759Z,17.50
2023-04-15T10:49:59.338Z,17.80
2023-04-15T10:52:28.803Z,17.90
2023-04-15T10:55:14.453Z,18.00
2023-04-15T10:57:42.747Z,18.20
2023-04-15T11:00:16.376Z,18.30
2023-04-15T11:02:46.503Z,18.50
2023-04-15T11:05:19.211Z,18.70
2023-04-15T11:07:54.857Z,18.80
2023-04-15T11:10:31.025Z,18.80
2023-04-15T11:13:03.492Z,18.90
2023-04-15T11:15:41.352Z,19.00
2023-04-15T11:18:16.718Z,19.10
2023-04-15T11:20:52.707Z,19.10
2023-04-15T11:23:27.511Z,19.10
2023-04-15T11:25:57.091Z,19.10
2023-04-15T11:28:30.377Z,19.10
2023-04-15T11:31:05.838Z,19.20
2023-04-15T11:33:32.603Z,19.20
2023-04-15T11:35:59.324Z,19.10
2023-04-15T11:38:25.974Z,19.10
2023-04-15T11:40:52.710Z,19.00
2023-04-15T11:43:26.724Z,19.00
2023-04-15T11:45:56.424Z,19.00
2023-04-15T11:48:28.708Z,18.90
2023-04-15T11:50:57.388Z,19.00
2023-04-15T11:53:24.873Z,19.10
2023-04-15T11:55:53.919Z,19.20
2023-04-15T11:58:25.331Z,19.30
2023-04-15T12:00:58.854Z,19.30
2023-04-15T12:03:31.208Z,19.40
2023-04-15T12:06:19.455Z,19.20
2023-04-15T12:09:00.357Z,19.20
2023-04-15T12:11:27.088Z,19.10
2023-04-15T12:14:34.270Z,19.00
2023-04-15T12:17:03.609Z,18.90
2023-04-15T12:19:41.714Z,18.90
2023-04-15T12:22:13.340Z,18.80
2023-04-15T12:24:42.329Z,18.90
2023-04-15T12:27:12.805Z,19.20
2023-04-15T12:29:40.935Z,19.40
2023-04-15T12:32:15.767Z,19.10
2023-04-15T12:34:51.108Z,19.10
2023-04-15T12:37:18.091Z,18.90
2023-04-15T12:39:47.997Z,18.70
2023-04-15T12:42:16.298Z,18.60
2023-04-15T12:44:43.145Z,18.40
2023-04-15T12:47:12.881Z,18.30
2023-04-15T12:49:39.999Z,18.30
2023-04-15T12:52:07.458Z,18.20
2023-04-15T12:54:34.830Z,18.40
2023-04-15T12:57:06.802Z,18.40
2023-04-15T12:59:34.379Z,18.40
2023-04-15T13:02:03.559Z,18.30
2023-04-15T13:04:31.099Z,18.30
2023-04-15T13:06:58.267Z,18.20
2023-04-15T13:09:25.220Z,18.10
2023-04-15T13:11:54.590Z,17.90
2023-04-15T13:14:21.579Z,18.00
2023-04-15T13:16:48.277Z,18.00
2023-04-15T13:19:15.022Z,18.10
2023-04-15T13:21:41.690Z,18.20
2023-04-15T13:24:09.412Z,18.30
2023-04-15T13:26:36.221Z,18.40
2023-04-15T13:29:03.000Z,18.40
2023-04-15T13:31:29.708Z,18.30
2023-04-15T13:33:59.894Z,18.10
2023-04-15T13:36:27.300Z,17.90
2023-04-15T13:38:54.287Z,17.70
2023-04-15T13:41:23.106Z,17.50
2023-04-15T13:43:49.907Z,17.30
2023-04-15T13:46:16.653Z,17.10
2023-04-15T13:48:43.492Z,17.00
2023-04-15T13:51:13.623Z,16.80
2023-04-15T13:53:40.277Z,16.70
2023-04-15T13:56:10.553Z,16.60
2023-04-15T13:58:40.821Z,16.50
2023-04-15T14:01:10.060Z,16.40
2023-04-15T14:03:39.493Z,16.20
2023-04-15T14:06:06.608Z,16.10
2023-04-15T14:08:33.648Z,16.00
2023-04-15T14:11:02.438Z,15.90
2023-04-15T14:13:31.393Z,15.80
2023-04-15T14:15:58.092Z,15.70
2023-04-15T14:18:24.971Z,15.70
2023-04-15T14:20:51.819Z,15.60
2023-04-15T14:23:18.549Z,15.60
2023-04-15T14:25:47.960Z,15.60
2023-04-15T14:28:15.233Z,15.50
2023-04-15T14:30:41.882Z,15.50
2023-04-15T14:33:12.991Z,15.40
2023-04-15T14:35:39.671Z,15.30
2023-04-15T14:38:10.401Z,15.30
2023-04-15T14:40:37.489Z,15.30
2023-04-15T14:43:06.675Z,15.30
2023-04-15T14:45:36.379Z,15.30
2023-04-15T14:48:03.794Z,15.30
2023-04-15T14:50:30.745Z,15.30
2023-04-15T14:52:58.269Z,15.30
2023-04-15T14:55:25.113Z,15.30
2023-04-15T14:57:51.806Z,15.30
2023-04-15T15:00:18.569Z,15.30
2023-04-15T15:02:47.714Z,15.30
2023-04-15T15:05:14.708Z,15.30
2023-04-15T15:07:41.598Z,15.40
2023-04-15T15:10:09.007Z,15.40
2023-04-15T15:12:38.290Z,15.40
2023-04-15T15:15:15.600Z,15.30
2023-04-15T15:17:46.607Z,15.40
2023-04-15T15:20:13.644Z,15.30
2023-04-15T15:22:42.894Z,15.30
2023-04-15T15:25:09.697Z,15.10
2023-04-15T15:27:38.232Z,15.00
2023-04-15T15:30:06.861Z,15.00
2023-04-15T15:32:34.067Z,15.00
2023-04-15T15:35:01.020Z,14.80
2023-04-15T15:37:28.009Z,14.80
2023-04-15T15:39:54.999Z,14.70
2023-04-15T15:42:22.805Z,14.70
2023-04-15T15:44:53.138Z,14.70
2023-04-15T15:47:21.631Z,14.70
2023-04-15T15:49:48.420Z,14.70
2023-04-15T15:52:15.872Z,14.50
2023-04-15T15:54:43.102Z,14.30
2023-04-15T15:57:10.688Z,14.20
2023-04-15T15:59:41.662Z,14.00
2023-04-15T16:02:12.632Z,13.90
2023-04-15T16:04:43.318Z,13.80
2023-04-15T16:07:11.680Z,13.70
2023-04-15T16:09:41.004Z,13.60
2023-04-15T16:12:08.006Z,13.60
2023-04-15T16:14:34.834Z,13.50
2023-04-15T16:17:03.913Z,13.40
2023-04-15T16:19:31.077Z,13.30
2023-04-15T16:21:58.005Z,13.20
2023-04-15T16:24:25.864Z,13.20
2023-04-15T16:26:52.792Z,13.10
2023-04-15T16:29:19.633Z,13.10
2023-04-15T16:31:47.537Z,13.10
2023-04-15T16:34:17.541Z,13.10
2023-04-15T16:36:44.463Z,13.00
2023-04-15T16:39:11.312Z,13.00
2023-04-15T16:41:38.772Z,12.90
2023-04-15T16:44:09.184Z,12.90
2023-04-15T16:46:37.369Z,12.80
2023-04-15T16:49:05.773Z,12.80
2023-04-15T16:51:33.190Z,12.80
2023-04-15T16:54:00.172Z,12.60
2023-04-15T16:56:29.718Z,12.60
2023-04-15T16:58:56.671Z,12.60
2023-04-15T17:01:23.477Z,12.50
2023-04-15T17:03:52.311Z,12.50
2023-04-15T17:06:20.906Z,12.40
2023-04-15T17:08:47.606Z,12.40
2023-04-15T17:11:15.498Z,12.30
2023-04-15T17:13:42.467Z,12.30
2023-04-15T17:16:09.720Z,12.20
2023-04-15T17:18:36.692Z,12.20
2023-04-15T17:21:04.859Z,11.90
2023-04-15T17:23:31.810Z,11.80
2023-04-15T17:25:58.567Z,11.70
2023-04-15T17:28:27.792Z,11.70
2023-04-15T17:30:54.590Z,11.70
2023-04-15T17:33:54.233Z,11.70
2023-04-15T17:36:08.813Z,11.60
2023-04-15T17:38:35.530Z,11.60
2023-04-15T17:41:02.285Z,11.60
2023-04-15T17:43:29.085Z,11.60
2023-04-15T17:45:58.211Z,11.60
2023-04-15T17:48:26.490Z,11.50
2023-04-15T17:50:53.495Z,11.50
2023-04-15T17:53:22.958Z,11.40
2023-04-15T17:55:53.053Z,11.40
2023-04-15T17:58:20.686Z,11.40
2023-04-15T18:00:50.666Z,11.40
2023-04-15T18:03:17.834Z,11.40
2023-04-15T18:05:47.665Z,11.40
2023-04-15T18:08:14.702Z,11.40
2023-04-15T18:10:41.590Z,11.40
2023-04-15T18:13:08.478Z,11.30
2023-04-15T18:15:35.584Z,11.30
2023-04-15T18:18:05.493Z,11.20
2023-04-15T18:20:33.590Z,11.20
2023-04-15T18:23:00.685Z,11.20
2023-04-15T18:25:27.744Z,11.20
2023-04-15T18:27:55.133Z,11.20
2023-04-15T18:30:22.382Z,11.20
2023-04-15T18:32:49.447Z,11.10
2023-04-15T18:35:17.279Z,11.00
2023-04-15T18:37:44.451Z,10.90
2023-04-15T18:40:11.886Z,10.80
2023-04-15T18:42:38.837Z,10.80
2023-04-15T18:45:11.030Z,10.70
2023-04-15T18:47:38.068Z,10.80
2023-04-15T18:50:07.771Z,10.70
2023-04-15T18:52:37.468Z,10.60
2023-04-15T18:55:06.834Z,10.50
2023-04-15T18:57:35.818Z,10.50
2023-04-15T19:00:03.774Z,10.50
2023-04-15T19:02:30.822Z,10.50
2023-04-15T19:04:57.921Z,10.50
2023-04-15T19:07:25.016Z,10.60
2023-04-15T19:09:53.008Z,10.60
2023-04-15T19:12:20.020Z,10.60
2023-04-15T19:14:49.455Z,10.60
2023-04-15T19:17:16.495Z,10.60
2023-04-15T19:19:43.779Z,10.60
2023-04-15T19:22:11.419Z,10.70
2023-04-15T19:24:38.585Z,10.60
2023-04-15T19:27:05.530Z,10.60
2023-04-15T19:29:33.338Z,10.60
2023-04-15T19:32:00.526Z,10.50
2023-04-15T19:34:27.634Z,10.50
2023-04-15T19:36:57.302Z,10.50
2023-04-15T19:39:24.433Z,10.50
2023-04-15T19:41:52.516Z,10.40
2023-04-15T19:44:21.187Z,10.40
2023-04-15T19:46:53.400Z,10.40
2023-04-15T19:49:20.712Z,10.30
2023-04-15T19:51:51.337Z,10.30
2023-04-15T19:54:21.183Z,10.30
2023-04-15T19:56:48.369Z,10.30
2023-04-15T19:59:15.447Z,10.40
2023-04-15T20:01:42.700Z,10.30
2023-04-15T20:04:10.109Z,10.30
2023-04-15T20:06:36.971Z,10.20
2023-04-15T20:09:04.285Z,10.20
2023-04-15T20:12:47.510Z,10.20
2023-04-15T20:14:20.922Z,10.20
2023-04-15T20:16:49.871Z,10.20
2023-04-15T20:19:18.728Z,10.10
2023-04-15T20:21:45.944Z,10.00
2023-04-15T20:24:12.741Z,10.00
2023-04-15T20:26:39.539Z,10.00
2023-04-15T20:29:06.581Z,10.00
2023-04-15T20:31:33.976Z,10.00
2023-04-15T20:34:00.844Z,10.00
2023-04-15T20:36:27.625Z,10.00
2023-04-15T20:38:58.938Z,10.00
2023-04-15T20:41:25.874Z,10.00
2023-04-15T20:43:52.624Z,10.00
2023-04-15T20:46:21.466Z,10.00
2023-04-15T20:48:51.052Z,9.90
2023-04-15T20:51:17.680Z,9.80
2023-04-15T20:53:46.625Z,9.80
2023-04-15T20:56:15.528Z,9.80
2023-04-15T20:58:44.334Z,9.80
2023-04-15T21:01:11.109Z,9.80
2023-04-15T21:03:38.083Z,9.80
2023-04-15T21:06:04.798Z,9.80
2023-04-15T21:08:31.570Z,9.80
2023-04-15T21:10:58.496Z,9.70
2023-04-15T21:13:25.364Z,9.70
2023-04-15T21:15:54.173Z,9.70
2023-04-15T21:18:21.937Z,9.70
2023-04-15T21:21:04.130Z,9.60
2023-04-15T21:23:36.031Z,9.60
2023-04-15T21:26:03.007Z,9.70
2023-04-15T21:28:29.905Z,9.70
2023-04-15T21:31:01.420Z,9.60
2023-04-15T21:33:28.198Z,9.60
2023-04-15T21:35:55.158Z,9.70
2023-04-15T21:38:23.367Z,9.60
2023-04-15T21:40:50.789Z,9.60
2023-04-15T21:43:17.688Z,9.60
2023-04-15T21:46:21.374Z,9.60
2023-04-15T21:48:33.573Z,9.60
2023-04-15T21:51:01.709Z,9.60
2023-04-15T21:53:30.751Z,9.60
2023-04-15T21:55:57.442Z,9.60
2023-04-15T21:58:26.347Z,9.60
2023-04-15T22:01:00.396Z,9.60
2023-04-15T22:03:34.991Z,9.60
2023-04-15T22:06:04.402Z,9.70
2023-04-15T22:08:44.577Z,9.70
2023-04-15T22:11:27.472Z,9.60
2023-04-15T22:13:54.991Z,9.60
2023-04-15T22:16:27.036Z,9.60
2023-04-15T22:18:54.668Z,9.70
2023-04-15T22:21:21.720Z,9.60
2023-04-15T22:23:49.481Z,9.60
2023-04-15T22:26:16.313Z,9.60
2023-04-15T22:28:51.404Z,9.60
2023-04-15T22:31:18.488Z,9.60
2023-04-15T22:33:47.660Z,9.60
2023-04-15T22:36:14.833Z,9.60
2023-04-15T22:38:41.650Z,9.60
2023-04-15T22:41:09.119Z,9.60
2023-04-15T22:43:35.857Z,9.60
2023-04-15T22:46:02.627Z,9.60
2023-04-15T22:48:29.315Z,9.60
2023-04-15T22:50:58.286Z,9.60
2023-04-15T22:53:25.020Z,9.60
2023-04-15T22:55:51.952Z,9.60
2023-04-15T22:58:18.635Z,9.60
2023-04-15T23:00:48.080Z,9.60
2023-04-15T23:03:14.922Z,9.60
2023-04-15T23:05:41.998Z,9.60
2023-04-15T23:08:11.097Z,9.60
2023-04-15T23:10:40.044Z,9.60
2023-04-15T23:13:06.730Z,9.60
2023-04-15T23:15:33.446Z,9.60
2023-04-15T23:18:02.654Z,9.60
2023-04-15T23:20:29.348Z,9.60
2023-04-15T23:22:56.105Z,9.60
2023-04-15T23:25:23.028Z,9.60
2023-04-15T23:27:49.837Z,9.60
2023-04-15T23:30:18.719Z,9.60
2023-04-15T23:32:47.694Z,9.60
2023-04-15T23:35:14.401Z,9.60
2023-04-15T23:37:41.108Z,9.60
2023-04-15T23:40:08.352Z,9.60
2023-04-15T23:42:37.208Z,9.60
2023-04-15T23:45:04.093Z,9.60
2023-04-15T23:47:30.883Z,9.60
2023-04-15T23:49:57.549Z,9.50
2023-04-15T23:52:24.342Z,9.60
2023-04-15T23:54:51.150Z,9.50
2023-04-15T23:57:18.745Z,9.60
2023-04-15T23:59:48.451Z,9.60
